sensor_id;sensor_type;location;lat;lon;timestamp;temperature;humidity
16970;DHT22;8601;48.718;8.992;2022-10-24T00:00:29;16.50;99.90
16970;DHT22;8601;48.718;8.992;2022-10-24T00:02:56;16.50;99.90
16970;DHT22;8601;48.718;8.992;2022-10-24T00:05:24;16.40;99.90
16970;DHT22;8601;48.718;8.992;2022-10-24T00:07:51;16.30;99.90
16970;DHT22;8601;48.718;8.992;2022-10-24T00:10:19;16.40;99.90
16970;DHT22;8601;48.718;8.992;2022-10-24T00:12:47;16.30;99.90
16970;DHT22;8601;48.718;8.992;2022-10-24T00:15:14;16.30;99.90
16970;DHT22;8601;48.718;8.992;2022-10-24T00:17:41;16.20;99.90
16970;DHT22;8601;48.718;8.992;2022-10-24T00:20:10;16.20;99.90
16970;DHT22;8601;48.718;8.992;2022-10-24T00:22:39;16.10;99.90
16970;DHT22;8601;48.718;8.992;2022-10-24T00:25:07;16.10;99.90
16970;DHT22;8601;48.718;8.992;2022-10-24T00:27:34;16.10;99.90
16970;DHT22;8601;48.718;8.992;2022-10-24T00:30:04;16.10;99.90
16970;DHT22;8601;48.718;8.992;2022-10-24T00:32:31;16.00;99.90
16970;DHT22;8601;48.718;8.992;2022-10-24T00:34:58;16.00;99.90
16970;DHT22;8601;48.718;8.992;2022-10-24T00:37:25;16.00;99.90
16970;DHT22;8601;48.718;8.992;2022-10-24T00:39:52;16.00;99.90
16970;DHT22;8601;48.718;8.992;2022-10-24T00:42:18;16.00;99.90
16970;DHT22;8601;48.718;8.992;2022-10-24T00:44:47;16.00;99.90
16970;DHT22;8601;48.718;8.992;2022-10-24T00:47:19;16.00;99.90
16970;DHT22;8601;48.718;8.992;2022-10-24T00:49:49;15.80;99.90
16970;DHT22;8601;48.718;8.992;2022-10-24T00:52:20;15.60;99.90
16970;DHT22;8601;48.718;8.992;2022-10-24T00:54:48;15.50;99.90
16970;DHT22;8601;48.718;8.992;2022-10-24T00:57:21;15.30;99.90
16970;DHT22;8601;48.718;8.992;2022-10-24T00:59:54;15.20;99.90
16970;DHT22;8601;48.718;8.992;2022-10-24T01:02:31;15.10;99.90
16970;DHT22;8601;48.718;8.992;2022-10-24T01:05:00;15.00;99.90
16970;DHT22;8601;48.718;8.992;2022-10-24T01:07:42;15.00;99.90
16970;DHT22;8601;48.718;8.992;2022-10-24T01:10:25;15.00;99.90
16970;DHT22;8601;48.718;8.992;2022-10-24T01:13:00;15.00;99.90
16970;DHT22;8601;48.718;8.992;2022-10-24T01:15:34;15.10;99.90
16970;DHT22;8601;48.718;8.992;2022-10-24T01:18:11;15.10;99.90
16970;DHT22;8601;48.718;8.992;2022-10-24T01:20:48;15.10;99.90
16970;DHT22;8601;48.718;8.992;2022-10-24T01:27:06;15.20;99.90
16970;DHT22;8601;48.718;8.992;2022-10-24T01:29:45;15.20;99.90
16970;DHT22;8601;48.718;8.992;2022-10-24T01:32:20;15.10;99.90
16970;DHT22;8601;48.718;8.992;2022-10-24T01:34:53;15.20;99.90
16970;DHT22;8601;48.718;8.992;2022-10-24T01:37:26;15.10;99.90
16970;DHT22;8601;48.718;8.992;2022-10-24T01:39:57;15.20;99.90
16970;DHT22;8601;48.718;8.992;2022-10-24T01:42:27;15.20;99.90
16970;DHT22;8601;48.718;8.992;2022-10-24T01:44:59;15.20;99.90
16970;DHT22;8601;48.718;8.992;2022-10-24T01:47:29;15.20;99.90
16970;DHT22;8601;48.718;8.992;2022-10-24T01:50:01;15.30;99.90
16970;DHT22;8601;48.718;8.992;2022-10-24T01:52:32;15.20;99.90
16970;DHT22;8601;48.718;8.992;2022-10-24T01:55:00;15.20;99.90
16970;DHT22;8601;48.718;8.992;2022-10-24T01:57:29;15.20;99.90
16970;DHT22;8601;48.718;8.992;2022-10-24T01:59:58;15.20;99.90
16970;DHT22;8601;48.718;8.992;2022-10-24T02:02:27;15.30;99.90
16970;DHT22;8601;48.718;8.992;2022-10-24T02:04:58;15.30;99.90
16970;DHT22;8601;48.718;8.992;2022-10-24T02:07:28;15.20;99.90
16970;DHT22;8601;48.718;8.992;2022-10-24T02:09:58;15.20;99.90
16970;DHT22;8601;48.718;8.992;2022-10-24T02:12:27;15.30;99.90
16970;DHT22;8601;48.718;8.992;2022-10-24T02:14:58;15.40;99.90
16970;DHT22;8601;48.718;8.992;2022-10-24T02:17:28;15.40;99.90
16970;DHT22;8601;48.718;8.992;2022-10-24T02:19:55;15.40;99.90
16970;DHT22;8601;48.718;8.992;2022-10-24T02:22:27;15.40;99.90
16970;DHT22;8601;48.718;8.992;2022-10-24T02:24:57;15.40;99.90
16970;DHT22;8601;48.718;8.992;2022-10-24T02:27:30;15.40;99.90
16970;DHT22;8601;48.718;8.992;2022-10-24T02:30:02;15.30;99.90
16970;DHT22;8601;48.718;8.992;2022-10-24T02:32:34;15.30;99.90
16970;DHT22;8601;48.718;8.992;2022-10-24T02:35:02;15.30;99.90
16970;DHT22;8601;48.718;8.992;2022-10-24T02:37:31;15.30;99.90
16970;DHT22;8601;48.718;8.992;2022-10-24T02:40:00;15.30;99.90
16970;DHT22;8601;48.718;8.992;2022-10-24T02:42:29;15.30;99.90
16970;DHT22;8601;48.718;8.992;2022-10-24T02:44:56;15.30;99.90
16970;DHT22;8601;48.718;8.992;2022-10-24T02:47:27;15.40;99.90
16970;DHT22;8601;48.718;8.992;2022-10-24T02:49:55;15.40;99.90
16970;DHT22;8601;48.718;8.992;2022-10-24T02:52:22;15.40;99.90
16970;DHT22;8601;48.718;8.992;2022-10-24T02:54:49;15.40;99.90
16970;DHT22;8601;48.718;8.992;2022-10-24T02:57:17;15.40;99.90
16970;DHT22;8601;48.718;8.992;2022-10-24T02:59:45;15.30;99.90
16970;DHT22;8601;48.718;8.992;2022-10-24T03:02:12;15.40;99.90
16970;DHT22;8601;48.718;8.992;2022-10-24T03:04:41;15.30;99.90
16970;DHT22;8601;48.718;8.992;2022-10-24T03:07:08;15.30;99.90
16970;DHT22;8601;48.718;8.992;2022-10-24T03:09:35;15.30;99.90
16970;DHT22;8601;48.718;8.992;2022-10-24T03:12:02;15.50;99.90
16970;DHT22;8601;48.718;8.992;2022-10-24T03:14:30;15.60;99.90
16970;DHT22;8601;48.718;8.992;2022-10-24T03:16:57;15.60;99.90
16970;DHT22;8601;48.718;8.992;2022-10-24T03:19:24;15.60;99.90
16970;DHT22;8601;48.718;8.992;2022-10-24T03:21:52;15.60;99.90
16970;DHT22;8601;48.718;8.992;2022-10-24T03:24:20;15.60;99.90
16970;DHT22;8601;48.718;8.992;2022-10-24T03:26:47;15.70;99.90
16970;DHT22;8601;48.718;8.992;2022-10-24T03:29:16;15.70;99.90
16970;DHT22;8601;48.718;8.992;2022-10-24T03:31:43;15.80;99.90
16970;DHT22;8601;48.718;8.992;2022-10-24T03:34:10;15.80;99.90
16970;DHT22;8601;48.718;8.992;2022-10-24T03:36:37;15.80;99.90
16970;DHT22;8601;48.718;8.992;2022-10-24T03:39:06;15.80;99.90
16970;DHT22;8601;48.718;8.992;2022-10-24T03:41:33;15.70;99.90
16970;DHT22;8601;48.718;8.992;2022-10-24T03:44:00;15.70;99.90
16970;DHT22;8601;48.718;8.992;2022-10-24T03:46:27;15.70;99.90
16970;DHT22;8601;48.718;8.992;2022-10-24T03:48:54;15.70;99.90
16970;DHT22;8601;48.718;8.992;2022-10-24T03:51:21;15.70;99.90
16970;DHT22;8601;48.718;8.992;2022-10-24T03:53:47;15.60;99.90
16970;DHT22;8601;48.718;8.992;2022-10-24T03:56:16;15.60;99.90
16970;DHT22;8601;48.718;8.992;2022-10-24T03:58:43;15.60;99.90
16970;DHT22;8601;48.718;8.992;2022-10-24T04:01:10;15.60;99.90
16970;DHT22;8601;48.718;8.992;2022-10-24T04:03:41;15.60;99.90
16970;DHT22;8601;48.718;8.992;2022-10-24T04:06:09;15.50;99.90
16970;DHT22;8601;48.718;8.992;2022-10-24T04:08:36;15.50;99.90
16970;DHT22;8601;48.718;8.992;2022-10-24T04:11:04;15.60;99.90
16970;DHT22;8601;48.718;8.992;2022-10-24T04:13:34;15.70;99.90
16970;DHT22;8601;48.718;8.992;2022-10-24T04:16:01;15.80;99.90
16970;DHT22;8601;48.718;8.992;2022-10-24T04:18:28;15.90;99.90
16970;DHT22;8601;48.718;8.992;2022-10-24T04:20:55;15.90;99.90
16970;DHT22;8601;48.718;8.992;2022-10-24T04:23:21;15.90;99.90
16970;DHT22;8601;48.718;8.992;2022-10-24T04:25:48;15.80;99.90
16970;DHT22;8601;48.718;8.992;2022-10-24T04:28:15;15.80;99.90
16970;DHT22;8601;48.718;8.992;2022-10-24T04:30:53;15.70;99.90
16970;DHT22;8601;48.718;8.992;2022-10-24T04:33:21;15.70;99.90
16970;DHT22;8601;48.718;8.992;2022-10-24T04:35:48;15.70;99.90
16970;DHT22;8601;48.718;8.992;2022-10-24T04:38:16;15.60;99.90
16970;DHT22;8601;48.718;8.992;2022-10-24T04:40:44;15.60;99.90
16970;DHT22;8601;48.718;8.992;2022-10-24T04:43:13;15.60;99.90
16970;DHT22;8601;48.718;8.992;2022-10-24T04:45:39;15.80;99.90
16970;DHT22;8601;48.718;8.992;2022-10-24T04:48:08;15.80;99.90
16970;DHT22;8601;48.718;8.992;2022-10-24T04:50:35;15.80;99.90
16970;DHT22;8601;48.718;8.992;2022-10-24T04:53:02;15.90;99.90
16970;DHT22;8601;48.718;8.992;2022-10-24T04:55:30;15.90;99.90
16970;DHT22;8601;48.718;8.992;2022-10-24T04:57:57;15.90;99.90
16970;DHT22;8601;48.718;8.992;2022-10-24T05:00:25;15.90;99.90
16970;DHT22;8601;48.718;8.992;2022-10-24T05:02:54;15.90;99.90
16970;DHT22;8601;48.718;8.992;2022-10-24T05:05:27;16.00;99.90
16970;DHT22;8601;48.718;8.992;2022-10-24T05:07:54;16.00;99.90
16970;DHT22;8601;48.718;8.992;2022-10-24T05:10:21;15.90;99.90
16970;DHT22;8601;48.718;8.992;2022-10-24T05:12:49;16.00;99.90
16970;DHT22;8601;48.718;8.992;2022-10-24T05:15:16;16.00;99.90
16970;DHT22;8601;48.718;8.992;2022-10-24T05:17:43;16.00;99.90
16970;DHT22;8601;48.718;8.992;2022-10-24T05:20:10;16.00;99.90
16970;DHT22;8601;48.718;8.992;2022-10-24T05:22:39;16.00;99.90
16970;DHT22;8601;48.718;8.992;2022-10-24T05:25:07;16.30;99.90
16970;DHT22;8601;48.718;8.992;2022-10-24T05:27:34;16.10;99.90
16970;DHT22;8601;48.718;8.992;2022-10-24T05:30:01;16.00;99.90
16970;DHT22;8601;48.718;8.992;2022-10-24T05:32:27;15.80;99.90
16970;DHT22;8601;48.718;8.992;2022-10-24T05:34:55;15.80;99.90
16970;DHT22;8601;48.718;8.992;2022-10-24T05:37:22;15.70;99.90
16970;DHT22;8601;48.718;8.992;2022-10-24T05:39:50;15.60;99.90
16970;DHT22;8601;48.718;8.992;2022-10-24T05:42:18;15.60;99.90
16970;DHT22;8601;48.718;8.992;2022-10-24T05:44:44;15.60;99.90
16970;DHT22;8601;48.718;8.992;2022-10-24T05:47:11;15.50;99.90
16970;DHT22;8601;48.718;8.992;2022-10-24T05:49:38;15.50;99.90
16970;DHT22;8601;48.718;8.992;2022-10-24T05:52:05;15.50;99.90
16970;DHT22;8601;48.718;8.992;2022-10-24T05:54:32;15.50;99.90
16970;DHT22;8601;48.718;8.992;2022-10-24T05:57:01;15.20;99.90
16970;DHT22;8601;48.718;8.992;2022-10-24T05:59:28;14.80;99.90
16970;DHT22;8601;48.718;8.992;2022-10-24T06:02:01;14.60;99.90
16970;DHT22;8601;48.718;8.992;2022-10-24T06:04:28;14.60;99.90
16970;DHT22;8601;48.718;8.992;2022-10-24T06:06:55;14.60;99.90
16970;DHT22;8601;48.718;8.992;2022-10-24T06:09:22;14.60;99.90
16970;DHT22;8601;48.718;8.992;2022-10-24T06:11:49;14.70;99.90
16970;DHT22;8601;48.718;8.992;2022-10-24T06:14:19;14.70;99.90
16970;DHT22;8601;48.718;8.992;2022-10-24T06:16:46;14.70;99.90
16970;DHT22;8601;48.718;8.992;2022-10-24T06:19:13;14.80;99.90
16970;DHT22;8601;48.718;8.992;2022-10-24T06:21:39;14.80;99.90
16970;DHT22;8601;48.718;8.992;2022-10-24T06:24:07;14.80;99.90
16970;DHT22;8601;48.718;8.992;2022-10-24T06:26:34;14.80;99.90
16970;DHT22;8601;48.718;8.992;2022-10-24T06:29:00;14.80;99.90
16970;DHT22;8601;48.718;8.992;2022-10-24T06:31:29;14.80;99.90
16970;DHT22;8601;48.718;8.992;2022-10-24T06:33:55;14.80;99.90
16970;DHT22;8601;48.718;8.992;2022-10-24T06:36:22;14.80;99.90
16970;DHT22;8601;48.718;8.992;2022-10-24T06:38:49;14.80;99.90
16970;DHT22;8601;48.718;8.992;2022-10-24T06:41:16;14.80;99.90
16970;DHT22;8601;48.718;8.992;2022-10-24T06:43:45;14.80;99.90
16970;DHT22;8601;48.718;8.992;2022-10-24T06:46:15;14.70;99.90
16970;DHT22;8601;48.718;8.992;2022-10-24T06:48:43;14.70;99.90
16970;DHT22;8601;48.718;8.992;2022-10-24T06:51:13;14.70;99.90
16970;DHT22;8601;48.718;8.992;2022-10-24T06:53:40;14.70;99.90
16970;DHT22;8601;48.718;8.992;2022-10-24T06:56:07;14.60;99.90
16970;DHT22;8601;48.718;8.992;2022-10-24T06:58:36;14.50;99.90
16970;DHT22;8601;48.718;8.992;2022-10-24T07:01:06;14.40;99.90
16970;DHT22;8601;48.718;8.992;2022-10-24T07:03:33;14.50;99.90
16970;DHT22;8601;48.718;8.992;2022-10-24T07:06:06;14.50;99.90
16970;DHT22;8601;48.718;8.992;2022-10-24T07:08:34;14.40;99.90
16970;DHT22;8601;48.718;8.992;2022-10-24T07:11:01;14.40;99.90
16970;DHT22;8601;48.718;8.992;2022-10-24T07:13:28;14.40;99.90
16970;DHT22;8601;48.718;8.992;2022-10-24T07:15:54;14.40;99.90
16970;DHT22;8601;48.718;8.992;2022-10-24T07:18:23;14.40;99.90
16970;DHT22;8601;48.718;8.992;2022-10-24T07:20:50;14.40;99.90
16970;DHT22;8601;48.718;8.992;2022-10-24T07:23:18;14.40;99.90
16970;DHT22;8601;48.718;8.992;2022-10-24T07:25:50;14.40;99.90
16970;DHT22;8601;48.718;8.992;2022-10-24T07:28:17;14.40;99.90
16970;DHT22;8601;48.718;8.992;2022-10-24T07:30:44;14.40;99.90
16970;DHT22;8601;48.718;8.992;2022-10-24T07:33:11;14.50;99.90
16970;DHT22;8601;48.718;8.992;2022-10-24T07:35:41;14.50;99.90
16970;DHT22;8601;48.718;8.992;2022-10-24T07:38:08;14.60;99.90
16970;DHT22;8601;48.718;8.992;2022-10-24T07:40:36;14.80;99.90
16970;DHT22;8601;48.718;8.992;2022-10-24T07:43:04;14.80;99.90
16970;DHT22;8601;48.718;8.992;2022-10-24T07:45:31;14.80;99.90
16970;DHT22;8601;48.718;8.992;2022-10-24T07:47:58;14.80;99.90
16970;DHT22;8601;48.718;8.992;2022-10-24T07:50:25;14.80;99.90
16970;DHT22;8601;48.718;8.992;2022-10-24T07:52:52;14.80;99.90
16970;DHT22;8601;48.718;8.992;2022-10-24T07:55:19;14.80;99.90
16970;DHT22;8601;48.718;8.992;2022-10-24T07:57:58;14.70;99.90
16970;DHT22;8601;48.718;8.992;2022-10-24T08:00:25;14.70;99.90
16970;DHT22;8601;48.718;8.992;2022-10-24T08:02:52;14.70;99.90
16970;DHT22;8601;48.718;8.992;2022-10-24T08:05:19;14.70;99.90
16970;DHT22;8601;48.718;8.992;2022-10-24T08:07:45;14.70;99.90
16970;DHT22;8601;48.718;8.992;2022-10-24T08:10:13;14.80;99.90
16970;DHT22;8601;48.718;8.992;2022-10-24T08:12:40;14.70;99.90
16970;DHT22;8601;48.718;8.992;2022-10-24T08:15:09;14.70;99.90
16970;DHT22;8601;48.718;8.992;2022-10-24T08:17:36;14.70;99.90
16970;DHT22;8601;48.718;8.992;2022-10-24T08:20:04;14.70;99.90
16970;DHT22;8601;48.718;8.992;2022-10-24T08:22:31;14.60;99.90
16970;DHT22;8601;48.718;8.992;2022-10-24T08:24:59;14.70;99.90
16970;DHT22;8601;48.718;8.992;2022-10-24T08:27:26;14.70;99.90
16970;DHT22;8601;48.718;8.992;2022-10-24T08:29:53;14.70;99.90
16970;DHT22;8601;48.718;8.992;2022-10-24T08:32:21;14.70;99.90
16970;DHT22;8601;48.718;8.992;2022-10-24T08:34:48;14.80;99.90
16970;DHT22;8601;48.718;8.992;2022-10-24T08:37:15;14.80;99.90
16970;DHT22;8601;48.718;8.992;2022-10-24T08:39:42;14.70;99.90
16970;DHT22;8601;48.718;8.992;2022-10-24T08:42:12;14.80;99.90
16970;DHT22;8601;48.718;8.992;2022-10-24T08:44:42;14.80;99.90
16970;DHT22;8601;48.718;8.992;2022-10-24T08:47:17;14.70;99.90
16970;DHT22;8601;48.718;8.992;2022-10-24T08:49:50;14.80;99.90
16970;DHT22;8601;48.718;8.992;2022-10-24T08:52:25;14.80;99.90
16970;DHT22;8601;48.718;8.992;2022-10-24T08:54:55;14.80;99.90
16970;DHT22;8601;48.718;8.992;2022-10-24T08:57:26;14.80;99.90
16970;DHT22;8601;48.718;8.992;2022-10-24T08:59:59;14.80;99.90
16970;DHT22;8601;48.718;8.992;2022-10-24T09:02:30;14.90;99.90
16970;DHT22;8601;48.718;8.992;2022-10-24T09:05:02;14.90;99.90
16970;DHT22;8601;48.718;8.992;2022-10-24T09:07:30;14.90;99.90
16970;DHT22;8601;48.718;8.992;2022-10-24T09:10:04;14.90;99.90
16970;DHT22;8601;48.718;8.992;2022-10-24T09:12:40;14.90;99.90
16970;DHT22;8601;48.718;8.992;2022-10-24T09:15:14;14.90;99.90
16970;DHT22;8601;48.718;8.992;2022-10-24T09:17:41;14.90;99.90
16970;DHT22;8601;48.718;8.992;2022-10-24T09:20:19;14.90;99.90
16970;DHT22;8601;48.718;8.992;2022-10-24T09:22:47;14.90;99.90
16970;DHT22;8601;48.718;8.992;2022-10-24T09:25:15;14.90;99.90
16970;DHT22;8601;48.718;8.992;2022-10-24T09:27:43;14.90;99.90
16970;DHT22;8601;48.718;8.992;2022-10-24T09:30:15;14.90;99.90
16970;DHT22;8601;48.718;8.992;2022-10-24T09:32:43;14.90;99.90
16970;DHT22;8601;48.718;8.992;2022-10-24T09:35:17;15.00;99.90
16970;DHT22;8601;48.718;8.992;2022-10-24T09:37:46;15.00;99.90
16970;DHT22;8601;48.718;8.992;2022-10-24T09:40:19;15.00;99.90
16970;DHT22;8601;48.718;8.992;2022-10-24T09:42:55;15.00;99.90
16970;DHT22;8601;48.718;8.992;2022-10-24T09:45:33;14.90;99.90
16970;DHT22;8601;48.718;8.992;2022-10-24T09:48:04;14.90;99.90
16970;DHT22;8601;48.718;8.992;2022-10-24T09:50:34;14.90;99.90
16970;DHT22;8601;48.718;8.992;2022-10-24T09:53:02;14.90;99.90
16970;DHT22;8601;48.718;8.992;2022-10-24T09:55:29;15.00;99.90
16970;DHT22;8601;48.718;8.992;2022-10-24T09:57:59;15.00;99.90
16970;DHT22;8601;48.718;8.992;2022-10-24T10:00:32;15.00;99.90
16970;DHT22;8601;48.718;8.992;2022-10-24T10:03:03;15.10;99.90
16970;DHT22;8601;48.718;8.992;2022-10-24T10:05:43;15.10;99.90
16970;DHT22;8601;48.718;8.992;2022-10-24T10:08:20;15.10;99.90
16970;DHT22;8601;48.718;8.992;2022-10-24T10:11:02;15.10;99.90
16970;DHT22;8601;48.718;8.992;2022-10-24T10:13:29;15.20;99.90
16970;DHT22;8601;48.718;8.992;2022-10-24T10:16:03;15.20;99.90
16970;DHT22;8601;48.718;8.992;2022-10-24T10:18:34;15.40;99.90
16970;DHT22;8601;48.718;8.992;2022-10-24T10:21:12;15.30;99.90
16970;DHT22;8601;48.718;8.992;2022-10-24T10:23:42;15.30;99.90
16970;DHT22;8601;48.718;8.992;2022-10-24T10:26:16;15.30;99.90
16970;DHT22;8601;48.718;8.992;2022-10-24T10:28:51;15.30;99.90
16970;DHT22;8601;48.718;8.992;2022-10-24T10:31:21;15.30;99.90
16970;DHT22;8601;48.718;8.992;2022-10-24T10:33:56;15.40;99.90
16970;DHT22;8601;48.718;8.992;2022-10-24T10:36:31;15.30;99.90
16970;DHT22;8601;48.718;8.992;2022-10-24T10:39:15;15.30;99.90
16970;DHT22;8601;48.718;8.992;2022-10-24T10:41:47;15.40;99.90
16970;DHT22;8601;48.718;8.992;2022-10-24T10:44:39;15.40;99.90
16970;DHT22;8601;48.718;8.992;2022-10-24T10:47:15;15.40;99.90
16970;DHT22;8601;48.718;8.992;2022-10-24T10:49:48;15.30;99.90
16970;DHT22;8601;48.718;8.992;2022-10-24T10:52:24;15.30;99.90
16970;DHT22;8601;48.718;8.992;2022-10-24T10:55:05;15.20;99.90
16970;DHT22;8601;48.718;8.992;2022-10-24T10:57:42;15.20;99.90
16970;DHT22;8601;48.718;8.992;2022-10-24T11:00:15;15.10;99.90
16970;DHT22;8601;48.718;8.992;2022-10-24T11:02:54;15.20;99.90
16970;DHT22;8601;48.718;8.992;2022-10-24T11:05:40;15.10;99.90
16970;DHT22;8601;48.718;8.992;2022-10-24T11:08:26;15.10;99.90
16970;DHT22;8601;48.718;8.992;2022-10-24T11:11:01;15.10;99.90
16970;DHT22;8601;48.718;8.992;2022-10-24T11:13:32;15.10;99.90
16970;DHT22;8601;48.718;8.992;2022-10-24T11:16:04;15.10;99.90
16970;DHT22;8601;48.718;8.992;2022-10-24T11:18:34;15.10;99.90
16970;DHT22;8601;48.718;8.992;2022-10-24T11:21:05;15.10;99.90
16970;DHT22;8601;48.718;8.992;2022-10-24T11:23:37;15.10;99.90
16970;DHT22;8601;48.718;8.992;2022-10-24T11:26:06;15.10;99.90
16970;DHT22;8601;48.718;8.992;2022-10-24T11:28:37;15.10;99.90
16970;DHT22;8601;48.718;8.992;2022-10-24T11:31:10;15.20;99.90
16970;DHT22;8601;48.718;8.992;2022-10-24T11:33:42;15.20;99.90
16970;DHT22;8601;48.718;8.992;2022-10-24T11:36:17;15.20;99.90
16970;DHT22;8601;48.718;8.992;2022-10-24T11:38:50;15.20;99.90
16970;DHT22;8601;48.718;8.992;2022-10-24T11:41:40;15.30;99.90
16970;DHT22;8601;48.718;8.992;2022-10-24T11:44:17;15.30;99.90
16970;DHT22;8601;48.718;8.992;2022-10-24T11:46:52;15.30;99.90
16970;DHT22;8601;48.718;8.992;2022-10-24T11:49:28;15.30;99.90
16970;DHT22;8601;48.718;8.992;2022-10-24T11:51:58;15.40;99.90
16970;DHT22;8601;48.718;8.992;2022-10-24T11:54:33;15.40;99.90
16970;DHT22;8601;48.718;8.992;2022-10-24T11:57:09;15.30;99.90
16970;DHT22;8601;48.718;8.992;2022-10-24T11:59:39;15.40;99.90
16970;DHT22;8601;48.718;8.992;2022-10-24T12:02:32;15.40;99.90
16970;DHT22;8601;48.718;8.992;2022-10-24T12:05:26;15.40;99.90
16970;DHT22;8601;48.718;8.992;2022-10-24T12:08:12;15.40;99.90
16970;DHT22;8601;48.718;8.992;2022-10-24T12:11:12;15.40;99.90
16970;DHT22;8601;48.718;8.992;2022-10-24T12:14:02;15.40;99.90
16970;DHT22;8601;48.718;8.992;2022-10-24T12:16:44;15.40;99.90
16970;DHT22;8601;48.718;8.992;2022-10-24T12:19:16;15.30;99.90
16970;DHT22;8601;48.718;8.992;2022-10-24T12:21:46;15.30;99.90
16970;DHT22;8601;48.718;8.992;2022-10-24T12:24:24;15.30;99.90
16970;DHT22;8601;48.718;8.992;2022-10-24T12:26:59;15.40;99.90
16970;DHT22;8601;48.718;8.992;2022-10-24T12:29:29;15.40;99.90
16970;DHT22;8601;48.718;8.992;2022-10-24T12:31:58;15.40;99.90
16970;DHT22;8601;48.718;8.992;2022-10-24T12:34:43;15.30;99.90
16970;DHT22;8601;48.718;8.992;2022-10-24T12:37:30;15.40;99.90
16970;DHT22;8601;48.718;8.992;2022-10-24T12:39:57;15.30;99.90
16970;DHT22;8601;48.718;8.992;2022-10-24T12:45:32;15.40;99.90
16970;DHT22;8601;48.718;8.992;2022-10-24T12:48:28;15.40;99.90
16970;DHT22;8601;48.718;8.992;2022-10-24T12:51:01;15.40;99.90
16970;DHT22;8601;48.718;8.992;2022-10-24T12:53:31;15.50;99.90
16970;DHT22;8601;48.718;8.992;2022-10-24T12:56:14;15.50;99.90
16970;DHT22;8601;48.718;8.992;2022-10-24T12:58:44;15.60;99.90
16970;DHT22;8601;48.718;8.992;2022-10-24T13:01:23;15.60;99.90
16970;DHT22;8601;48.718;8.992;2022-10-24T13:07:03;15.60;99.90
16970;DHT22;8601;48.718;8.992;2022-10-24T13:09:42;15.60;99.90
16970;DHT22;8601;48.718;8.992;2022-10-24T13:12:30;15.70;99.90
16970;DHT22;8601;48.718;8.992;2022-10-24T13:15:22;15.70;99.90
16970;DHT22;8601;48.718;8.992;2022-10-24T13:18:04;15.70;99.90
16970;DHT22;8601;48.718;8.992;2022-10-24T13:20:36;15.70;99.90
16970;DHT22;8601;48.718;8.992;2022-10-24T13:23:11;15.70;99.90
16970;DHT22;8601;48.718;8.992;2022-10-24T13:25:39;15.70;99.90
16970;DHT22;8601;48.718;8.992;2022-10-24T13:28:36;15.70;99.90
16970;DHT22;8601;48.718;8.992;2022-10-24T13:31:41;15.70;99.90
16970;DHT22;8601;48.718;8.992;2022-10-24T13:34:31;15.70;99.90
16970;DHT22;8601;48.718;8.992;2022-10-24T13:37:11;15.70;99.90
16970;DHT22;8601;48.718;8.992;2022-10-24T13:39:44;15.70;99.90
16970;DHT22;8601;48.718;8.992;2022-10-24T13:42:24;15.70;99.90
16970;DHT22;8601;48.718;8.992;2022-10-24T13:44:57;15.70;99.90
16970;DHT22;8601;48.718;8.992;2022-10-24T13:47:28;15.70;99.90
16970;DHT22;8601;48.718;8.992;2022-10-24T13:50:03;15.80;99.90
16970;DHT22;8601;48.718;8.992;2022-10-24T13:52:36;15.80;99.90
16970;DHT22;8601;48.718;8.992;2022-10-24T13:55:15;15.80;99.90
16970;DHT22;8601;48.718;8.992;2022-10-24T13:57:58;15.70;99.90
16970;DHT22;8601;48.718;8.992;2022-10-24T14:00:29;15.80;99.90
16970;DHT22;8601;48.718;8.992;2022-10-24T14:03:01;15.70;99.90
16970;DHT22;8601;48.718;8.992;2022-10-24T14:05:34;15.70;99.90
16970;DHT22;8601;48.718;8.992;2022-10-24T14:08:03;15.70;99.90
16970;DHT22;8601;48.718;8.992;2022-10-24T14:10:31;15.80;99.90
16970;DHT22;8601;48.718;8.992;2022-10-24T14:12:58;15.80;99.90
16970;DHT22;8601;48.718;8.992;2022-10-24T14:15:27;15.80;99.90
16970;DHT22;8601;48.718;8.992;2022-10-24T14:17:58;16.30;99.90
16970;DHT22;8601;48.718;8.992;2022-10-24T14:20:27;16.20;99.90
16970;DHT22;8601;48.718;8.992;2022-10-24T14:22:56;16.20;99.90
16970;DHT22;8601;48.718;8.992;2022-10-24T14:25:26;16.10;99.90
16970;DHT22;8601;48.718;8.992;2022-10-24T14:27:57;16.10;99.90
16970;DHT22;8601;48.718;8.992;2022-10-24T14:30:26;16.10;99.90
16970;DHT22;8601;48.718;8.992;2022-10-24T14:33:22;16.10;99.90
16970;DHT22;8601;48.718;8.992;2022-10-24T14:35:50;16.00;99.90
16970;DHT22;8601;48.718;8.992;2022-10-24T14:38:27;16.10;99.90
16970;DHT22;8601;48.718;8.992;2022-10-24T14:40:54;16.10;99.90
16970;DHT22;8601;48.718;8.992;2022-10-24T14:43:24;16.20;99.90
16970;DHT22;8601;48.718;8.992;2022-10-24T14:46:08;16.30;99.90
16970;DHT22;8601;48.718;8.992;2022-10-24T14:48:35;16.50;99.90
16970;DHT22;8601;48.718;8.992;2022-10-24T14:51:04;16.50;99.90
16970;DHT22;8601;48.718;8.992;2022-10-24T14:53:36;16.50;99.90
16970;DHT22;8601;48.718;8.992;2022-10-24T14:56:05;16.40;99.90
16970;DHT22;8601;48.718;8.992;2022-10-24T14:58:41;16.40;99.90
16970;DHT22;8601;48.718;8.992;2022-10-24T15:01:15;16.40;99.90
16970;DHT22;8601;48.718;8.992;2022-10-24T15:03:50;16.40;99.90
16970;DHT22;8601;48.718;8.992;2022-10-24T15:06:23;16.30;99.90
16970;DHT22;8601;48.718;8.992;2022-10-24T15:09:03;16.30;99.90
16970;DHT22;8601;48.718;8.992;2022-10-24T15:11:48;16.20;99.90
16970;DHT22;8601;48.718;8.992;2022-10-24T15:14:31;16.20;99.90
16970;DHT22;8601;48.718;8.992;2022-10-24T15:16:59;16.20;99.90
16970;DHT22;8601;48.718;8.992;2022-10-24T15:19:28;16.10;99.90
16970;DHT22;8601;48.718;8.992;2022-10-24T15:21:55;16.10;99.90
16970;DHT22;8601;48.718;8.992;2022-10-24T15:24:24;16.00;99.90
16970;DHT22;8601;48.718;8.992;2022-10-24T15:27:07;15.90;99.90
16970;DHT22;8601;48.718;8.992;2022-10-24T15:29:35;15.80;99.90
16970;DHT22;8601;48.718;8.992;2022-10-24T15:32:04;15.80;99.90
16970;DHT22;8601;48.718;8.992;2022-10-24T15:34:31;15.80;99.90
16970;DHT22;8601;48.718;8.992;2022-10-24T15:36:59;15.80;99.90
16970;DHT22;8601;48.718;8.992;2022-10-24T15:39:29;15.70;99.90
16970;DHT22;8601;48.718;8.992;2022-10-24T15:41:56;15.70;99.90
16970;DHT22;8601;48.718;8.992;2022-10-24T15:44:25;15.60;99.90
16970;DHT22;8601;48.718;8.992;2022-10-24T15:46:54;15.60;99.90
16970;DHT22;8601;48.718;8.992;2022-10-24T15:49:27;15.60;99.90
16970;DHT22;8601;48.718;8.992;2022-10-24T15:51:56;15.60;99.90
16970;DHT22;8601;48.718;8.992;2022-10-24T15:54:25;15.60;99.90
16970;DHT22;8601;48.718;8.992;2022-10-24T15:56:54;15.50;99.90
16970;DHT22;8601;48.718;8.992;2022-10-24T15:59:21;15.50;99.90
16970;DHT22;8601;48.718;8.992;2022-10-24T16:01:53;15.60;99.90
16970;DHT22;8601;48.718;8.992;2022-10-24T16:04:21;15.50;99.90
16970;DHT22;8601;48.718;8.992;2022-10-24T16:06:49;15.50;99.90
16970;DHT22;8601;48.718;8.992;2022-10-24T16:09:19;15.50;99.90
16970;DHT22;8601;48.718;8.992;2022-10-24T16:11:47;15.40;99.90
16970;DHT22;8601;48.718;8.992;2022-10-24T16:14:18;15.40;99.90
16970;DHT22;8601;48.718;8.992;2022-10-24T16:16:46;15.30;99.90
16970;DHT22;8601;48.718;8.992;2022-10-24T16:19:13;15.30;99.90